Time;durP1;ratioP1;P1;durP2;ratioP2;P2;SDS_P1;SDS_P2;PMS_P1;PMS_P2;Temp;Humidity;BMP_temperature;BMP_pressure;BME280_temperature;BME280_humidity;BME280_pressure;Samples;Min_cycle;Max_cycle;Signal;HPM_P1;HPM_P2
2021/12/17 00:01:17;;;;;;;17.38;11.88;;;7.30;99.90;;;6.93;100.00;103102.50;4103375;29;20050;-69
2021/12/17 00:03:21;;;;;;;17.58;11.95;;;7.30;99.90;;;7.04;100.00;103111.56;4119527;28;20046;-69
2021/12/17 00:05:32;;;;;;;18.98;13.55;;;7.40;99.90;;;6.97;100.00;103107.53;4104750;29;20035;-69
2021/12/17 00:07:35;;;;;;;19.17;12.93;;;7.40;99.90;;;6.91;100.00;103106.97;4118488;28;20031;-69
2021/12/17 00:09:37;;;;;;;18.35;12.05;;;7.30;99.90;;;6.92;100.00;103108.69;4104672;29;20078;-69
2021/12/17 00:11:38;;;;;;;20.20;12.88;;;7.30;99.90;;;7.00;100.00;103109.16;4104814;28;20038;-69
2021/12/17 00:13:43;;;;;;;15.68;12.48;;;7.40;99.90;;;6.97;100.00;103114.53;4104815;29;20487;-69
2021/12/17 00:15:45;;;;;;;19.60;12.45;;;7.40;99.90;;;6.91;100.00;103104.34;4119134;28;20162;-69
2021/12/17 00:17:54;;;;;;;20.65;13.27;;;7.40;99.90;;;6.79;100.00;103111.03;4104599;28;20031;-69
2021/12/17 00:50:20;;;;;;;22.58;15.48;;;7.30;99.90;;;6.70;100.00;103093.13;4116830;28;20041;-70
2021/12/17 00:52:22;;;;;;;21.67;13.98;;;7.30;99.90;;;6.72;100.00;103098.31;4117079;28;20073;-69
2021/12/17 00:54:40;;;;;;;19.88;14.07;;;7.20;99.90;;;6.90;100.00;103092.16;4118984;28;20113;-69
2021/12/17 00:56:41;;;;;;;20.52;14.45;;;7.10;99.90;;;6.90;100.00;103094.78;4117621;28;20086;-69
2021/12/17 00:58:42;;;;;;;20.05;14.13;;;7.30;99.90;;;6.90;100.00;103092.16;4104271;29;20035;-70
2021/12/17 01:00:43;;;;;;;22.20;14.63;;;7.30;99.90;;;6.92;100.00;103083.28;4118788;28;20117;-69
2021/12/17 01:02:45;;;;;;;26.17;14.85;;;7.20;99.90;;;6.84;100.00;103082.78;4118894;28;20034;-70
2021/12/17 01:04:51;;;;;;;21.77;14.18;;;7.30;99.90;;;6.91;100.00;103080.72;4103627;28;20076;-69
2021/12/17 01:06:53;;;;;;;19.80;14.13;;;7.20;99.90;;;6.97;100.00;103081.28;4118766;28;20465;-70
2021/12/17 01:08:54;;;;;;;20.85;14.23;;;7.30;99.90;;;7.03;100.00;103072.25;4118808;28;20026;-69
2021/12/17 01:10:57;;;;;;;18.88;13.52;;;7.30;99.90;;;6.95;100.00;103083.16;4118762;28;20145;-69
2021/12/17 01:12:59;;;;;;;19.73;13.60;;;7.40;99.90;;;6.95;100.00;103085.78;4118715;28;20046;-69
2021/12/17 01:15:00;;;;;;;20.60;13.93;;;7.30;99.90;;;6.95;100.00;103074.41;4104104;29;20023;-69
2021/12/17 01:17:03;;;;;;;18.77;15.10;;;7.30;99.90;;;6.98;100.00;103074.25;4118550;28;20025;-69
2021/12/17 01:24:32;;;;;;;20.23;14.23;;;7.20;99.90;;;6.98;100.00;103079.50;4102595;29;20546;-69
2021/12/17 01:35:21;;;;;;;19.02;14.43;;;7.30;99.90;;;6.90;100.00;103060.69;4116432;28;20162;-70
2021/12/17 01:40:41;;;;;;;20.08;14.05;;;7.30;99.90;;;6.86;100.00;103057.34;4104097;28;20773;-69
2021/12/17 01:41:59;;;;;;;18.92;13.40;;;7.40;99.90;;;6.82;100.00;103057.56;4103565;28;20047;-69
2021/12/17 01:44:02;;;;;;;16.73;12.55;;;7.30;99.90;;;6.87;100.00;103064.28;4105130;28;20126;-70
2021/12/17 01:46:05;;;;;;;20.33;14.32;;;7.30;99.90;;;6.91;100.00;103067.59;4121481;28;20043;-69
2021/12/17 01:48:13;;;;;;;19.80;14.73;;;7.30;99.90;;;6.92;100.00;103061.44;4106971;28;20130;-69
2021/12/17 01:59:35;;;;;;;22.75;15.88;;;7.20;99.90;;;6.68;100.00;103058.25;4121013;28;20038;-70
2021/12/17 02:01:37;;;;;;;20.98;15.88;;;7.20;99.90;;;6.68;100.00;103058.25;4106413;29;20023;-69
2021/12/17 02:03:38;;;;;;;23.95;15.95;;;7.20;99.90;;;6.69;100.00;103049.44;4106777;29;20041;-69
2021/12/17 02:05:39;;;;;;;23.92;15.70;;;7.20;99.90;;;6.80;100.00;103064.69;4106402;29;20051;-69
2021/12/17 02:07:42;;;;;;;25.00;16.00;;;7.20;99.90;;;6.79;100.00;103060.34;4106672;28;20055;-69
2021/12/17 02:31:02;;;;;;;22.77;17.05;;;7.10;99.90;;;6.61;100.00;103055.06;4120808;28;20050;-69
2021/12/17 02:33:03;;;;;;;27.42;16.95;;;7.10;99.90;;;6.59;100.00;103054.31;4106344;29;20027;-70
2021/12/17 02:37:16;;;;;;;23.08;16.20;;;7.00;99.90;;;6.62;100.00;103069.03;4120370;28;20041;-69
2021/12/17 02:46:16;;;;;;;26.95;18.63;;;7.10;99.90;;;6.56;100.00;103056.22;4105837;29;20530;-69
2021/12/17 02:48:21;;;;;;;27.00;16.27;;;7.00;99.90;;;6.60;100.00;103055.16;4106179;29;20032;-70
2021/12/17 02:50:23;;;;;;;24.33;17.15;;;7.00;99.90;;;6.51;100.00;103047.75;4106051;28;20058;-69
2021/12/17 02:52:29;;;;;;;25.58;18.08;;;7.00;99.90;;;6.53;100.00;103049.34;4120764;28;20047;-69
2021/12/17 02:54:33;;;;;;;24.63;17.23;;;7.00;99.90;;;6.51;100.00;103048.56;4105552;28;20019;-69
2021/12/17 02:56:34;;;;;;;26.17;17.17;;;7.00;99.90;;;6.45;100.00;103043.63;4120028;28;20027;-69
2021/12/17 02:58:38;;;;;;;25.27;17.42;;;7.00;99.90;;;6.47;100.00;103047.03;4120685;28;20039;-69
2021/12/17 03:00:41;;;;;;;;;;;6.90;99.90;;;6.52;100.00;103042.41;4120997;28;20157;-69
2021/12/17 03:02:46;;;;;;;23.83;16.85;;;6.90;99.90;;;6.49;100.00;103037.31;4106042;28;19910;-69
2021/12/17 03:04:47;;;;;;;29.77;17.50;;;7.00;99.90;;;6.49;100.00;103031.22;4120202;28;20027;-70
2021/12/17 03:06:48;;;;;;;26.00;16.67;;;6.90;99.90;;;6.41;100.00;103033.34;4120568;28;20121;-69
2021/12/17 03:08:49;;;;;;;28.42;19.55;;;6.90;99.90;;;6.41;100.00;103034.22;4127415;28;20026;-70
2021/12/17 03:10:51;;;;;;;28.73;18.02;;;6.90;99.90;;;6.34;100.00;103034.56;4105901;28;20039;-69
2021/12/17 03:13:00;;;;;;;24.92;16.98;;;6.90;99.90;;;6.42;100.00;103030.66;4120581;28;20097;-70
2021/12/17 03:17:16;;;;;;;25.23;17.27;;;6.80;99.90;;;6.47;100.00;103026.06;4119875;28;20081;-69
2021/12/17 03:23:56;;;;;;;25.00;18.00;;;6.80;99.90;;;6.29;100.00;103011.22;4104675;29;20045;-69
2021/12/17 03:26:02;;;;;;;27.50;17.80;;;6.80;99.90;;;6.31;100.00;103017.22;4120476;28;20095;-69
2021/12/17 03:28:03;;;;;;;27.02;18.73;;;6.80;99.90;;;6.24;100.00;103012.34;4104329;28;20490;-69
2021/12/17 03:30:04;;;;;;;28.50;18.85;;;6.80;99.90;;;6.19;100.00;103014.31;4105571;28;20439;-69
2021/12/17 03:32:06;;;;;;;27.52;19.38;;;6.80;99.90;;;6.30;100.00;103012.06;4105285;29;20546;-69
2021/12/17 03:34:20;;;;;;;28.02;19.13;;;6.70;99.90;;;6.31;100.00;103011.97;4120201;28;20042;-69
2021/12/17 03:36:21;;;;;;;25.42;18.33;;;6.80;99.90;;;6.29;100.00;103015.59;4105500;28;20114;-70
2021/12/17 03:38:21;;;;;;;26.42;18.55;;;6.60;99.90;;;6.23;100.00;103011.50;4105523;29;20027;-69
2021/12/17 03:40:23;;;;;;;26.85;18.13;;;6.70;99.90;;;6.21;100.00;103009.88;4105332;29;20041;-70
2021/12/17 03:42:23;;;;;;;30.00;18.00;;;6.70;99.90;;;6.20;100.00;103009.03;4105578;29;20034;-70
2021/12/17 03:44:25;;;;;;;29.58;19.50;;;6.70;99.90;;;6.18;100.00;103004.78;4105305;29;20027;-70
2021/12/17 03:46:25;;;;;;;25.02;17.83;;;6.60;99.90;;;6.17;100.00;103011.78;4105105;29;20042;-70
2021/12/17 03:48:30;;;;;;;29.25;18.45;;;6.70;99.90;;;6.04;100.00;103008.03;4103953;29;20027;-70
2021/12/17 03:50:35;;;;;;;27.58;19.67;;;6.60;99.90;;;5.93;100.00;102999.81;4105468;28;20043;-69
2021/12/17 03:52:36;;;;;;;30.83;18.90;;;6.60;99.90;;;6.09;100.00;103012.13;4119868;28;20106;-69
2021/12/17 03:54:38;;;;;;;29.83;18.65;;;6.60;99.90;;;6.05;100.00;103010.59;4130818;28;20050;-69
2021/12/17 03:56:39;;;;;;;32.10;20.13;;;6.60;99.90;;;6.13;100.00;103004.97;4119747;28;20051;-69
2021/12/17 03:58:40;;;;;;;28.85;18.92;;;6.60;99.90;;;6.09;100.00;103013.94;4105272;28;20562;-70
2021/12/17 04:00:41;;;;;;;26.40;17.65;;;6.60;99.90;;;6.14;100.00;103017.16;4119499;28;20031;-69
2021/12/17 04:02:41;;;;;;;28.80;17.95;;;6.60;99.90;;;6.10;100.00;103016.47;4130029;28;20513;-69
2021/12/17 04:04:43;;;;;;;27.42;18.75;;;6.60;99.90;;;6.06;100.00;103014.06;4103449;29;20062;-70
2021/12/17 04:06:45;;;;;;;24.40;17.42;;;6.60;99.90;;;6.00;100.00;103016.97;4119250;28;20023;-70
2021/12/17 04:08:46;;;;;;;28.23;17.40;;;6.50;99.90;;;6.01;100.00;103014.25;4105062;28;20106;-70
2021/12/17 04:10:50;;;;;;;29.55;18.73;;;6.50;99.90;;;6.02;100.00;103020.38;4104904;28;20027;-70
2021/12/17 04:12:59;;;;;;;30.80;19.10;;;6.50;99.90;;;6.04;100.00;103013.28;4119384;28;20506;-69
2021/12/17 04:15:01;;;;;;;25.67;18.42;;;6.50;99.90;;;5.97;100.00;103017.94;4118866;28;20027;-70
2021/12/17 04:17:05;;;;;;;25.55;17.75;;;7.20;99.90;;;5.99;100.00;103017.88;4104648;28;20027;-70
2021/12/17 04:19:06;;;;;;;28.27;18.25;;;6.50;99.90;;;5.94;100.00;103019.88;4119381;28;20110;-70
2021/12/17 04:21:15;;;;;;;26.33;17.85;;;6.40;99.90;;;6.08;100.00;103013.06;4119451;28;20521;-69
2021/12/17 04:23:16;;;;;;;26.80;17.77;;;6.40;99.90;;;5.99;100.00;103013.50;4103759;29;20023;-69
2021/12/17 04:25:17;;;;;;;28.02;18.48;;;6.40;99.90;;;6.02;100.00;103013.34;4104691;28;20034;-69
2021/12/17 04:27:18;;;;;;;28.42;18.67;;;6.80;99.90;;;5.95;100.00;103009.31;4104610;29;20487;-69
2021/12/17 04:29:20;;;;;;;26.42;17.67;;;6.40;99.90;;;6.01;100.00;103009.03;4104699;29;20126;-69
2021/12/17 04:31:25;;;;;;;29.70;20.00;;;6.50;99.90;;;6.04;100.00;103008.03;4104393;29;20027;-69
2021/12/17 04:33:26;;;;;;;26.50;17.85;;;6.50;99.90;;;5.99;100.00;103004.78;4103250;28;20510;-69
2021/12/17 04:35:27;;;;;;;26.15;17.45;;;6.50;99.90;;;5.98;100.00;103016.19;4103222;28;20039;-69
2021/12/17 04:37:28;;;;;;;25.33;18.48;;;6.40;99.90;;;6.02;100.00;103015.13;4103372;28;20027;-69
2021/12/17 04:39:29;;;;;;;22.73;16.20;;;6.50;99.90;;;6.06;100.00;103019.31;4104519;28;20118;-69
2021/12/17 04:41:54;;;;;;;29.40;17.85;;;6.30;99.90;;;6.05;100.00;103015.84;4119193;28;20094;-69
2021/12/17 04:46:14;;;;;;;27.15;17.63;;;6.50;99.90;;;5.94;100.00;103019.88;4104350;28;20027;-70
2021/12/17 04:57:37;;;;;;;30.98;18.95;;;6.20;99.90;;;6.01;100.00;103021.28;4116830;28;20045;-69
2021/12/17 04:59:38;;;;;;;25.83;17.55;;;6.40;99.90;;;5.76;100.00;103010.19;4102977;28;20038;-69
2021/12/17 05:01:39;;;;;;;26.83;17.48;;;6.30;99.90;;;5.90;100.00;103016.53;4103850;29;20073;-69
2021/12/17 05:03:40;;;;;;;23.60;17.50;;;6.40;99.90;;;5.92;100.00;103016.47;4102943;28;20038;-69
2021/12/17 05:05:41;;;;;;;28.88;17.90;;;6.30;99.90;;;5.99;100.00;103018.75;4118788;28;20069;-69
2021/12/17 05:07:49;;;;;;;27.55;18.13;;;6.40;99.90;;;6.08;100.00;103027.94;4135032;28;20061;-69
2021/12/17 05:19:41;;;;;;;26.08;17.15;;;6.30;99.90;;;5.89;100.00;103013.97;4113677;28;20047;-69
2021/12/17 05:21:42;;;;;;;26.25;17.20;;;6.30;99.90;;;5.70;100.00;103011.34;4114990;28;20031;-69
2021/12/17 05:23:44;;;;;;;25.90;17.27;;;6.30;99.90;;;5.72;100.00;103008.63;4103973;28;20118;-69
2021/12/17 05:25:46;;;;;;;26.58;16.77;;;6.30;99.90;;;5.75;100.00;103000.63;4103828;29;20594;-69
2021/12/17 05:27:46;;;;;;;29.23;16.92;;;6.30;99.90;;;5.86;100.00;103006.25;4118353;28;20473;-69
2021/12/17 05:29:47;;;;;;;28.88;17.23;;;6.30;99.90;;;5.88;100.00;103002.69;4103898;28;20027;-69
2021/12/17 05:31:48;;;;;;;31.80;18.40;;;6.30;99.90;;;5.86;100.00;103001.88;4118398;28;20026;-69
2021/12/17 05:33:51;;;;;;;21.38;16.10;;;6.30;99.90;;;5.91;100.00;102999.06;4103847;28;20394;-69
2021/12/17 05:35:53;;;;;;;27.23;18.80;;;6.30;99.90;;;5.89;100.00;103001.72;4118381;28;20058;-69
2021/12/17 05:37:55;;;;;;;25.00;17.83;;;6.30;99.90;;;5.89;100.00;103006.97;4124032;28;20121;-69
2021/12/17 05:39:56;;;;;;;24.88;18.15;;;6.60;99.90;;;5.89;100.00;102987.78;4102445;28;20577;-69
2021/12/17 05:41:57;;;;;;;25.90;17.17;;;6.30;99.90;;;5.92;100.00;102992.88;4118563;28;20058;-69
2021/12/17 05:43:57;;;;;;;26.52;17.30;;;6.30;99.90;;;5.82;100.00;102983.75;4118317;28;20030;-69
2021/12/17 05:48:06;;;;;;;23.77;16.63;;;6.30;99.90;;;5.74;100.00;102985.84;4103928;28;20086;-69
2021/12/17 05:50:08;;;;;;;26.15;17.95;;;6.30;99.90;;;5.78;100.00;102990.03;4118472;28;20075;-69
2021/12/17 05:52:09;;;;;;;23.77;16.90;;;6.30;99.90;;;5.72;100.00;102985.91;4103526;28;20110;-69
2021/12/17 05:54:10;;;;;;;26.05;17.83;;;6.30;99.90;;;5.80;100.00;102983.78;4118495;28;20034;-69
2021/12/17 05:56:11;;;;;;;24.23;17.63;;;6.30;99.90;;;5.74;100.00;102985.84;4118457;28;20434;-69
2021/12/17 05:58:12;;;;;;;30.45;19.60;;;6.20;99.90;;;5.76;100.00;102982.25;4118394;28;20031;-69
2021/12/17 06:00:14;;;;;;;25.38;16.63;;;6.30;99.90;;;5.87;100.00;102989.63;4118049;28;20117;-69
2021/12/17 06:02:18;;;;;;;26.92;16.27;;;6.30;99.90;;;5.83;100.00;102983.66;4118457;28;20035;-69
2021/12/17 06:04:19;;;;;;;25.77;17.17;;;6.20;99.90;;;5.67;100.00;102989.66;4103584;28;20024;-69
2021/12/17 06:06:37;;;;;;;26.13;17.65;;;6.20;99.90;;;5.61;100.00;102989.94;4103394;28;20043;-69
2021/12/17 06:08:38;;;;;;;26.17;17.92;;;6.20;99.90;;;5.72;100.00;102987.69;4134367;28;20026;-70
2021/12/17 06:10:39;;;;;;;25.77;17.60;;;6.20;99.90;;;5.70;100.00;102985.16;4103595;28;20058;-69
2021/12/17 06:12:41;;;;;;;23.23;16.45;;;6.20;99.90;;;5.68;100.00;102983.50;4103565;28;20114;-70
2021/12/17 06:14:42;;;;;;;27.73;17.83;;;6.20;99.90;;;5.65;100.00;102994.09;4118162;28;20085;-69
2021/12/17 06:16:43;;;;;;;23.90;16.17;;;6.30;99.90;;;5.70;100.00;102994.78;4118134;28;20489;-69
2021/12/17 06:18:44;;;;;;;25.67;17.50;;;6.20;99.90;;;5.65;100.00;102987.09;4103585;28;20034;-69
2021/12/17 06:20:45;;;;;;;25.77;18.13;;;6.20;99.90;;;5.65;100.00;102981.00;4103223;29;20031;-69
2021/12/17 06:22:47;;;;;;;29.60;17.17;;;6.20;99.90;;;5.67;100.00;102992.28;4103261;29;20388;-69
2021/12/17 06:24:48;;;;;;;27.35;17.92;;;6.20;99.90;;;5.68;100.00;102994.81;4118273;28;20035;-69
2021/12/17 06:26:48;;;;;;;25.92;17.05;;;6.20;99.90;;;5.54;100.00;102987.59;4103508;28;20032;-69
2021/12/17 06:28:50;;;;;;;26.70;18.20;;;6.20;99.90;;;5.59;100.00;102993.47;4118212;28;20031;-69
2021/12/17 06:30:51;;;;;;;28.33;18.20;;;7.50;99.90;;;5.53;100.00;102992.88;4105692;28;20431;-69
2021/12/17 06:32:52;;;;;;;30.65;17.50;;;6.20;99.90;;;5.54;100.00;102998.06;4121228;28;20026;-69
2021/12/17 06:34:53;;;;;;;27.20;17.25;;;6.20;99.90;;;5.58;100.00;103002.25;4121224;28;20048;-69
2021/12/17 06:36:54;;;;;;;29.00;18.63;;;6.20;99.90;;;5.61;100.00;102996.03;4106169;28;20063;-69
2021/12/17 06:38:55;;;;;;;24.67;17.17;;;6.10;99.90;;;5.58;100.00;102996.19;4120705;28;20053;-69
2021/12/17 06:40:58;;;;;;;27.48;18.00;;;6.10;99.90;;;5.63;100.00;103006.44;4104848;29;20039;-69
2021/12/17 06:42:59;;;;;;;26.75;17.00;;;6.10;99.90;;;5.70;100.00;103000.88;4106225;28;20057;-69
2021/12/17 06:45:05;;;;;;;26.92;17.15;;;6.20;99.90;;;5.57;100.00;102999.69;4105834;29;20489;-69
2021/12/17 06:47:15;;;;;;;28.40;18.25;;;6.20;99.90;;;5.63;100.00;102998.56;4106226;28;20106;-69
2021/12/17 07:01:04;;;;;;;26.10;16.95;;;6.10;99.90;;;5.75;100.00;103000.63;4105711;29;20038;-70
2021/12/17 07:10:16;;;;;;;26.50;17.17;;;6.10;99.90;;;5.75;100.00;102998.88;4105919;29;20098;-69
2021/12/17 07:21:38;;;;;;;30.42;17.42;;;6.20;99.90;;;5.69;100.00;103008.78;4105455;29;20533;-69
2021/12/17 07:28:50;;;;;;;26.80;18.77;;;6.10;99.90;;;5.71;100.00;103006.91;4105415;29;20041;-69
2021/12/17 07:39:13;;;;;;;27.90;17.13;;;6.20;99.90;;;5.62;100.00;103008.19;4105668;28;20039;-69
2021/12/17 07:41:15;;;;;;;26.15;17.65;;;6.20;99.90;;;5.54;100.00;103015.53;4104565;28;20094;-69
2021/12/17 07:43:25;;;;;;;27.10;17.90;;;6.10;99.90;;;5.68;100.00;103007.91;4120057;28;20077;-69
2021/12/17 07:45:26;;;;;;;25.92;17.35;;;6.10;99.90;;;5.64;100.00;103013.38;4104901;28;20027;-70
2021/12/17 07:47:27;;;;;;;27.48;18.27;;;6.10;99.90;;;5.67;100.00;103014.09;4105324;28;20063;-70
2021/12/17 07:49:28;;;;;;;29.02;17.98;;;6.10;99.90;;;5.62;100.00;103009.94;4120018;28;20031;-69
2021/12/17 07:51:29;;;;;;;28.63;17.55;;;6.10;99.90;;;5.63;100.00;103012.50;4105181;28;20026;-70
2021/12/17 07:53:31;;;;;;;28.52;18.75;;;6.10;99.90;;;5.57;100.00;103013.66;4119856;28;20105;-69
2021/12/17 07:55:32;;;;;;;28.20;18.13;;;6.10;99.90;;;5.58;100.00;103007.47;4119990;28;20019;-69
2021/12/17 07:57:33;;;;;;;27.23;19.17;;;6.20;99.90;;;5.41;100.00;103006.53;4119889;28;20069;-70
2021/12/17 07:59:34;;;;;;;25.17;17.40;;;6.10;99.90;;;5.48;100.00;103008.81;4119783;28;20027;-70
2021/12/17 08:01:36;;;;;;;27.05;18.73;;;6.10;99.90;;;5.64;100.00;103011.59;4119524;28;20043;-70
2021/12/17 08:03:40;;;;;;;27.23;19.15;;;6.10;99.90;;;5.66;100.00;103011.53;4103588;28;20031;-69
2021/12/17 08:05:43;;;;;;;22.63;14.25;;;6.10;99.90;;;5.65;100.00;103007.19;4103400;29;20061;-69
2021/12/17 08:07:44;;;;;;;24.13;17.98;;;6.10;99.90;;;5.58;100.00;102998.78;4135639;28;20030;-69
2021/12/17 08:09:46;;;;;;;27.98;19.02;;;6.10;99.90;;;5.66;100.00;103008.91;4119766;28;20512;-69
2021/12/17 08:11:54;;;;;;;26.98;18.77;;;6.10;99.90;;;5.67;100.00;103000.16;4104832;28;20023;-69
2021/12/17 08:13:57;;;;;;;32.50;18.73;;;6.10;99.90;;;5.64;100.00;103010.75;4119398;28;20094;-70
2021/12/17 08:18:32;;;;;;;26.80;17.70;;;6.10;99.90;;;5.59;100.00;103006.56;4104835;29;20119;-70
2021/12/17 08:25:17;;;;;;;23.08;14.65;;;6.10;99.90;;;5.49;100.00;102997.44;4103647;28;20553;-70
2021/12/17 08:31:34;;;;;;;30.30;18.73;;;6.20;99.90;;;5.58;100.00;103002.25;4118359;28;20033;-70
2021/12/17 08:33:35;;;;;;;28.55;17.67;;;6.20;99.90;;;5.65;100.00;103002.81;4119170;28;20062;-69
2021/12/17 08:35:37;;;;;;;30.90;19.23;;;6.20;99.90;;;5.66;100.00;102999.28;4104440;28;20024;-70
2021/12/17 08:37:38;;;;;;;25.48;18.42;;;6.20;99.90;;;5.65;100.00;103001.97;4119327;28;20065;-69
2021/12/17 08:39:39;;;;;;;29.90;20.40;;;6.20;99.90;;;5.69;100.00;103004.38;4104468;28;20435;-69
2021/12/17 08:41:41;;;;;;;28.42;18.13;;;6.30;99.90;;;5.73;100.00;103002.50;4104052;29;20058;-69
2021/12/17 08:43:42;;;;;;;24.70;17.30;;;6.30;99.90;;;5.84;100.00;103001.06;4104209;28;20031;-69
2021/12/17 08:45:43;;;;;;;26.70;18.02;;;6.40;99.90;;;5.77;100.00;102993.56;4118757;28;20090;-70
2021/12/17 08:47:44;;;;;;;28.98;18.88;;;6.40;99.90;;;5.76;100.00;102987.50;4104112;28;20049;-70
2021/12/17 08:49:45;;;;;;;28.73;19.77;;;6.40;99.90;;;5.61;100.00;102985.56;4104210;29;20027;-70
2021/12/17 08:51:46;;;;;;;30.73;18.08;;;6.40;99.90;;;5.93;100.00;103002.44;4104032;29;20106;-70
2021/12/17 08:53:47;;;;;;;28.80;18.95;;;6.40;99.90;;;5.79;100.00;102997.81;4104201;28;20419;-70
2021/12/17 08:55:48;;;;;;;29.70;19.35;;;6.50;99.90;;;5.78;100.00;102993.50;4104212;28;20472;-70
2021/12/17 08:57:49;;;;;;;26.42;17.63;;;6.50;99.90;;;5.91;100.00;102993.81;4118563;28;20038;-69
2021/12/17 08:59:50;;;;;;;26.15;18.83;;;6.50;99.90;;;5.98;100.00;102993.44;4103666;28;20032;-69
2021/12/17 09:01:51;;;;;;;27.33;18.35;;;6.50;99.90;;;6.07;100.00;102994.78;4118885;28;20114;-69
2021/12/17 09:03:52;;;;;;;26.92;17.23;;;6.60;99.90;;;6.00;100.00;102991.59;4118807;28;20082;-69
2021/12/17 09:05:53;;;;;;;31.25;17.90;;;6.60;99.90;;;6.03;100.00;102999.31;4103690;28;20110;-69
2021/12/17 09:07:54;;;;;;;30.13;17.95;;;6.70;99.90;;;6.06;100.00;102990.50;4102656;28;20031;-69
2021/12/17 09:09:55;;;;;;;27.30;17.80;;;6.70;99.90;;;6.07;100.00;102987.78;4103840;29;20056;-69
2021/12/17 09:11:55;;;;;;;30.83;20.42;;;6.70;99.90;;;6.14;100.00;102985.72;4118776;28;20019;-69
2021/12/17 09:13:59;;;;;;;33.97;20.15;;;6.80;99.90;;;6.14;100.00;102993.59;4118640;28;20027;-70
2021/12/17 09:16:06;;;;;;;32.63;20.95;;;6.80;99.90;;;6.15;100.00;102976.97;4118318;28;20434;-70
2021/12/17 09:18:07;;;;;;;34.28;20.92;;;6.80;99.90;;;6.23;100.00;102990.53;4103606;29;20569;-70
2021/12/17 09:20:09;;;;;;;32.03;19.08;;;6.90;99.90;;;6.27;100.00;102992.09;4118522;28;20109;-70
2021/12/17 09:22:10;;;;;;;31.48;20.55;;;7.90;99.90;;;6.26;100.00;103003.50;4118487;28;20038;-70
2021/12/17 09:24:11;;;;;;;28.23;18.35;;;7.00;99.90;;;6.31;100.00;102995.38;4098919;28;20067;-69
2021/12/17 09:26:16;;;;;;;30.80;19.50;;;7.00;99.90;;;6.24;100.00;102994.00;4103854;28;20498;-70
2021/12/17 09:28:17;;;;;;;26.27;18.50;;;7.00;99.90;;;6.31;100.00;102987.53;4118494;28;20105;-70
2021/12/17 09:30:19;;;;;;;27.75;19.75;;;7.00;99.90;;;6.31;100.00;102988.38;4118439;28;20038;-70
2021/12/17 09:32:21;;;;;;;29.48;17.77;;;7.00;99.90;;;6.37;100.00;102997.72;4103757;28;20042;-70
2021/12/17 09:34:22;;;;;;;27.98;18.80;;;7.10;99.90;;;6.34;100.00;102993.47;4102570;28;20034;-70
2021/12/17 09:36:23;;;;;;;29.27;18.15;;;7.60;99.90;;;6.43;100.00;102985.16;4118486;28;20426;-70
2021/12/17 09:38:24;;;;;;;27.88;17.35;;;7.20;99.90;;;6.43;100.00;102985.16;4093288;29;20551;-70
2021/12/17 09:40:26;;;;;;;26.02;17.80;;;7.20;99.90;;;6.50;100.00;102994.44;4102429;28;20034;-70
2021/12/17 09:42:28;;;;;;;23.60;18.00;;;7.20;99.90;;;6.50;100.00;102993.59;4118436;28;20445;-71
2021/12/17 09:44:29;;;;;;;28.80;17.80;;;7.20;99.90;;;6.45;100.00;102996.41;4118384;28;20031;-69
2021/12/17 09:46:30;;;;;;;28.00;18.48;;;7.20;99.90;;;6.46;100.00;102998.13;4096737;29;20031;-69
2021/12/17 09:48:34;;;;;;;28.42;19.00;;;7.30;99.90;;;6.53;100.00;102996.91;4118428;28;20098;-69
2021/12/17 09:50:35;;;;;;;27.17;17.52;;;7.30;99.90;;;6.64;100.00;102997.22;4091027;29;20119;-69
2021/12/17 09:52:36;;;;;;;26.85;17.40;;;7.30;99.90;;;6.67;100.00;103004.94;4119536;28;20706;-69
2021/12/17 09:54:38;;;;;;;24.67;17.83;;;7.40;99.90;;;6.59;100.00;102987.91;4119465;28;20035;-69
2021/12/17 09:56:39;;;;;;;25.88;17.33;;;7.40;99.90;;;6.55;100.00;102992.44;4101443;29;20027;-69
2021/12/17 09:58:40;;;;;;;27.40;17.92;;;7.40;99.90;;;6.66;100.00;102994.50;4104471;28;20041;-69
2021/12/17 10:00:42;;;;;;;27.27;17.23;;;7.50;99.90;;;6.76;100.00;103002.78;4119072;28;20058;-69
2021/12/17 10:02:44;;;;;;;29.60;17.63;;;7.50;99.90;;;6.79;100.00;103003.50;4119322;28;20031;-69
2021/12/17 10:04:45;;;;;;;23.33;16.80;;;7.50;99.90;;;6.77;100.00;103004.50;4119956;28;20630;-69
2021/12/17 10:06:49;;;;;;;26.00;17.42;;;7.60;99.90;;;6.84;100.00;103005.91;4106525;28;20043;-70
2021/12/17 10:08:50;;;;;;;27.60;18.10;;;7.60;99.90;;;6.86;100.00;103004.03;4122525;28;20509;-69
2021/12/17 10:11:01;;;;;;;31.55;17.80;;;7.60;99.90;;;6.92;100.00;102996.72;4126650;28;20344;-70
2021/12/17 10:13:29;;;;;;;28.10;17.55;;;7.70;99.90;;;7.01;100.00;102992.78;4123573;28;20109;-69
2021/12/17 10:15:36;;;;;;;26.77;17.55;;;7.70;99.90;;;7.07;100.00;102992.47;4114235;28;20027;-70
2021/12/17 10:18:01;;;;;;;26.58;17.58;;;7.70;99.90;;;7.18;100.00;102998.00;4122297;28;20086;-69
2021/12/17 10:20:05;;;;;;;25.70;16.75;;;7.90;99.90;;;7.26;100.00;102995.00;4107678;28;20442;-69
2021/12/17 10:22:12;;;;;;;29.83;18.50;;;7.90;99.90;;;7.26;100.00;102992.38;4121694;28;20031;-69
2021/12/17 10:24:24;;;;;;;29.65;19.40;;;8.00;99.90;;;7.30;100.00;102984.25;4105621;29;20028;-70
2021/12/17 10:26:27;;;;;;;27.33;18.08;;;7.90;99.90;;;7.20;100.00;102988.25;4107455;28;20042;-69
2021/12/17 10:28:30;;;;;;;28.60;19.17;;;8.00;99.90;;;7.14;100.00;102978.94;4121860;28;20027;-69
2021/12/17 10:30:38;;;;;;;25.48;17.48;;;8.10;99.90;;;7.28;100.00;102988.72;4121908;28;20031;-69
2021/12/17 10:32:43;;;;;;;26.67;18.08;;;8.10;99.90;;;7.21;100.00;102989.97;4121526;28;20510;-69
2021/12/17 10:35:06;;;;;;;27.45;17.00;;;8.20;99.90;;;7.27;100.00;102992.28;4121930;28;20078;-69
2021/12/17 10:37:07;;;;;;;26.30;17.88;;;8.10;99.90;;;7.29;100.00;102974.66;4107006;28;20636;-69
2021/12/17 10:39:29;;;;;;;28.35;17.65;;;8.20;99.90;;;7.28;100.00;102983.47;4107106;28;20031;-70
2021/12/17 10:41:32;;;;;;;26.20;17.63;;;8.00;99.90;;;7.21;100.00;102976.84;4107063;28;20055;-70
2021/12/17 10:43:38;;;;;;;24.58;16.95;;;8.10;99.90;;;7.44;100.00;102979.09;4107292;28;20545;-69
2021/12/17 10:45:48;;;;;;;24.23;17.58;;;8.20;99.90;;;7.39;100.00;102978.50;4121358;28;20133;-69
2021/12/17 10:50:33;;;;;;;31.52;18.63;;;8.30;99.90;;;7.48;100.00;102959.63;4107131;28;20027;-69
2021/12/17 10:52:40;;;;;;;26.08;17.10;;;8.60;99.90;;;7.52;100.00;102974.31;4106547;28;20046;-69
2021/12/17 10:54:42;;;;;;;26.65;16.63;;;8.40;99.90;;;7.51;100.00;102953.38;4106186;28;20118;-69
2021/12/17 10:56:55;;;;;;;26.08;17.05;;;8.40;99.90;;;7.61;100.00;102960.69;4105881;29;20589;-70
2021/12/17 10:59:37;;;;;;;24.85;17.13;;;8.40;99.90;;;7.72;100.00;102953.06;4121778;28;20027;-69
2021/12/17 11:01:54;;;;;;;28.02;16.90;;;8.50;99.90;;;7.87;100.00;102951.38;4105073;28;20042;-69
2021/12/17 11:04:29;;;;;;;27.77;17.20;;;8.70;99.90;;;7.92;100.00;102937.97;4121171;28;20049;-69
2021/12/17 11:06:50;;;;;;;24.40;17.15;;;8.70;99.90;;;7.97;100.00;102947.31;4098974;28;20047;-69
2021/12/17 11:08:51;;;;;;;23.45;16.60;;;8.80;99.90;;;8.04;100.00;102937.28;4106633;29;20479;-69
2021/12/17 11:10:57;;;;;;;22.42;16.63;;;8.90;99.90;;;8.10;100.00;102936.94;4121840;28;20407;-69
2021/12/17 11:12:58;;;;;;;25.40;16.08;;;8.90;99.90;;;8.04;100.00;102932.03;4120833;28;20027;-70
2021/12/17 11:15:26;;;;;;;24.95;16.35;;;9.00;99.90;;;8.08;100.00;102933.56;4121305;28;20030;-69
2021/12/17 11:17:27;;;;;;;25.80;15.80;;;9.00;99.90;;;8.17;100.00;102933.03;4120377;28;20641;-69
2021/12/17 11:19:30;;;;;;;23.20;15.95;;;9.10;99.90;;;8.27;100.00;102929.81;4106385;28;20027;-69
2021/12/17 11:21:32;;;;;;;24.05;15.93;;;9.10;99.90;;;8.39;100.00;102924.81;4106368;28;20051;-69